sensor_id;sensor_type;location;lat;lon;timestamp;P1;durP1;ratioP1;P2;durP2;ratioP2
24644;SDS011;12780;45.502;9.146;2024-01-06T00:01:14;8.95;;;5.07;;
24644;SDS011;12780;45.502;9.146;2024-01-06T00:03:40;9.07;;;5.53;;
24644;SDS011;12780;45.502;9.146;2024-01-06T00:06:06;8.55;;;4.97;;
24644;SDS011;12780;45.502;9.146;2024-01-06T00:08:32;7.30;;;4.30;;
24644;SDS011;12780;45.502;9.146;2024-01-06T00:10:58;9.23;;;4.82;;
24644;SDS011;12780;45.502;9.146;2024-01-06T00:13:27;7.88;;;4.35;;
24644;SDS011;12780;45.502;9.146;2024-01-06T00:15:53;6.05;;;4.28;;
24644;SDS011;12780;45.502;9.146;2024-01-06T00:18:19;6.43;;;4.30;;
24644;SDS011;12780;45.502;9.146;2024-01-06T00:20:45;9.40;;;4.03;;
24644;SDS011;12780;45.502;9.146;2024-01-06T00:23:11;7.45;;;4.28;;
24644;SDS011;12780;45.502;9.146;2024-01-06T00:25:37;7.88;;;4.28;;
24644;SDS011;12780;45.502;9.146;2024-01-06T00:28:03;9.27;;;4.57;;
24644;SDS011;12780;45.502;9.146;2024-01-06T00:30:29;6.63;;;4.13;;
24644;SDS011;12780;45.502;9.146;2024-01-06T00:32:55;5.30;;;3.65;;
24644;SDS011;12780;45.502;9.146;2024-01-06T00:35:21;6.85;;;3.95;;
24644;SDS011;12780;45.502;9.146;2024-01-06T00:37:47;4.80;;;3.30;;
24644;SDS011;12780;45.502;9.146;2024-01-06T00:40:14;5.20;;;3.40;;
24644;SDS011;12780;45.502;9.146;2024-01-06T00:42:40;6.18;;;3.55;;
24644;SDS011;12780;45.502;9.146;2024-01-06T00:45:06;5.45;;;2.95;;
24644;SDS011;12780;45.502;9.146;2024-01-06T00:47:32;5.05;;;3.03;;
24644;SDS011;12780;45.502;9.146;2024-01-06T00:49:58;6.15;;;2.92;;
24644;SDS011;12780;45.502;9.146;2024-01-06T00:52:24;4.15;;;2.88;;
24644;SDS011;12780;45.502;9.146;2024-01-06T00:54:50;5.47;;;2.60;;
24644;SDS011;12780;45.502;9.146;2024-01-06T00:57:16;3.85;;;2.83;;
24644;SDS011;12780;45.502;9.146;2024-01-06T00:59:42;5.38;;;3.08;;
24644;SDS011;12780;45.502;9.146;2024-01-06T01:02:08;3.67;;;2.45;;
24644;SDS011;12780;45.502;9.146;2024-01-06T01:04:34;4.40;;;2.65;;
24644;SDS011;12780;45.502;9.146;2024-01-06T01:07:00;4.40;;;2.92;;
24644;SDS011;12780;45.502;9.146;2024-01-06T01:09:26;4.05;;;2.40;;
24644;SDS011;12780;45.502;9.146;2024-01-06T01:11:52;3.97;;;2.65;;
24644;SDS011;12780;45.502;9.146;2024-01-06T01:14:18;3.65;;;2.40;;
24644;SDS011;12780;45.502;9.146;2024-01-06T01:16:44;3.75;;;2.30;;
24644;SDS011;12780;45.502;9.146;2024-01-06T01:19:10;3.03;;;2.20;;
24644;SDS011;12780;45.502;9.146;2024-01-06T01:21:36;3.88;;;2.10;;
24644;SDS011;12780;45.502;9.146;2024-01-06T01:24:02;5.57;;;2.72;;
24644;SDS011;12780;45.502;9.146;2024-01-06T01:26:28;4.18;;;2.60;;
24644;SDS011;12780;45.502;9.146;2024-01-06T01:28:54;4.13;;;2.80;;
24644;SDS011;12780;45.502;9.146;2024-01-06T01:31:20;5.32;;;2.83;;
24644;SDS011;12780;45.502;9.146;2024-01-06T01:33:46;4.80;;;2.80;;
24644;SDS011;12780;45.502;9.146;2024-01-06T01:36:12;4.22;;;2.60;;
24644;SDS011;12780;45.502;9.146;2024-01-06T01:38:38;4.93;;;2.60;;
24644;SDS011;12780;45.502;9.146;2024-01-06T01:41:04;6.28;;;2.95;;
24644;SDS011;12780;45.502;9.146;2024-01-06T01:43:30;5.20;;;2.80;;
24644;SDS011;12780;45.502;9.146;2024-01-06T01:45:56;5.88;;;3.55;;
24644;SDS011;12780;45.502;9.146;2024-01-06T01:48:23;6.22;;;3.25;;
24644;SDS011;12780;45.502;9.146;2024-01-06T01:50:50;6.13;;;3.60;;
24644;SDS011;12780;45.502;9.146;2024-01-06T01:53:17;5.95;;;3.70;;
24644;SDS011;12780;45.502;9.146;2024-01-06T01:55:43;6.18;;;3.63;;
24644;SDS011;12780;45.502;9.146;2024-01-06T01:58:09;3.30;;;2.47;;
24644;SDS011;12780;45.502;9.146;2024-01-06T02:00:36;4.93;;;2.28;;
24644;SDS011;12780;45.502;9.146;2024-01-06T02:03:03;3.45;;;2.50;;
24644;SDS011;12780;45.502;9.146;2024-01-06T02:05:30;3.40;;;2.20;;
24644;SDS011;12780;45.502;9.146;2024-01-06T02:07:56;4.95;;;2.50;;
24644;SDS011;12780;45.502;9.146;2024-01-06T02:10:22;4.43;;;2.60;;
24644;SDS011;12780;45.502;9.146;2024-01-06T02:12:48;4.45;;;2.42;;
24644;SDS011;12780;45.502;9.146;2024-01-06T02:15:16;2.97;;;2.45;;
24644;SDS011;12780;45.502;9.146;2024-01-06T02:17:42;5.55;;;2.60;;
24644;SDS011;12780;45.502;9.146;2024-01-06T02:20:08;4.68;;;2.70;;
24644;SDS011;12780;45.502;9.146;2024-01-06T02:22:38;4.43;;;3.00;;
24644;SDS011;12780;45.502;9.146;2024-01-06T02:25:04;4.05;;;2.70;;
24644;SDS011;12780;45.502;9.146;2024-01-06T02:27:32;6.82;;;3.10;;
24644;SDS011;12780;45.502;9.146;2024-01-06T02:29:58;3.38;;;2.72;;
24644;SDS011;12780;45.502;9.146;2024-01-06T02:32:25;4.95;;;3.05;;
24644;SDS011;12780;45.502;9.146;2024-01-06T02:34:50;4.50;;;2.83;;
24644;SDS011;12780;45.502;9.146;2024-01-06T02:37:17;5.20;;;3.20;;
24644;SDS011;12780;45.502;9.146;2024-01-06T02:39:43;5.07;;;3.10;;
24644;SDS011;12780;45.502;9.146;2024-01-06T02:42:08;5.38;;;3.00;;
24644;SDS011;12780;45.502;9.146;2024-01-06T02:44:34;3.42;;;2.75;;
24644;SDS011;12780;45.502;9.146;2024-01-06T02:47:00;5.03;;;3.35;;
24644;SDS011;12780;45.502;9.146;2024-01-06T02:49:26;4.57;;;3.40;;
24644;SDS011;12780;45.502;9.146;2024-01-06T02:51:53;4.97;;;3.35;;
24644;SDS011;12780;45.502;9.146;2024-01-06T02:54:19;5.85;;;2.80;;
24644;SDS011;12780;45.502;9.146;2024-01-06T02:56:45;5.47;;;3.33;;
24644;SDS011;12780;45.502;9.146;2024-01-06T02:59:11;4.68;;;3.30;;
24644;SDS011;12780;45.502;9.146;2024-01-06T03:01:37;5.13;;;3.08;;
24644;SDS011;12780;45.502;9.146;2024-01-06T03:04:03;4.65;;;3.05;;
24644;SDS011;12780;45.502;9.146;2024-01-06T03:06:29;5.18;;;3.20;;
24644;SDS011;12780;45.502;9.146;2024-01-06T03:08:55;7.95;;;3.53;;
24644;SDS011;12780;45.502;9.146;2024-01-06T03:11:21;5.90;;;3.45;;
24644;SDS011;12780;45.502;9.146;2024-01-06T03:13:47;4.97;;;3.60;;
24644;SDS011;12780;45.502;9.146;2024-01-06T03:16:13;4.43;;;3.38;;
24644;SDS011;12780;45.502;9.146;2024-01-06T03:18:39;5.78;;;3.55;;
24644;SDS011;12780;45.502;9.146;2024-01-06T03:21:05;6.95;;;4.28;;
24644;SDS011;12780;45.502;9.146;2024-01-06T03:23:31;4.30;;;3.25;;
24644;SDS011;12780;45.502;9.146;2024-01-06T03:25:57;4.57;;;3.45;;
24644;SDS011;12780;45.502;9.146;2024-01-06T03:28:23;5.20;;;3.42;;
24644;SDS011;12780;45.502;9.146;2024-01-06T03:30:49;4.70;;;2.80;;
24644;SDS011;12780;45.502;9.146;2024-01-06T03:33:15;3.83;;;2.78;;
24644;SDS011;12780;45.502;9.146;2024-01-06T03:35:41;6.63;;;2.97;;
24644;SDS011;12780;45.502;9.146;2024-01-06T03:38:07;4.40;;;3.03;;
24644;SDS011;12780;45.502;9.146;2024-01-06T03:40:33;3.85;;;3.03;;
24644;SDS011;12780;45.502;9.146;2024-01-06T03:42:59;5.47;;;3.88;;
24644;SDS011;12780;45.502;9.146;2024-01-06T03:45:25;7.47;;;4.07;;
24644;SDS011;12780;45.502;9.146;2024-01-06T03:47:51;6.70;;;5.25;;
24644;SDS011;12780;45.502;9.146;2024-01-06T03:50:17;8.40;;;4.40;;
24644;SDS011;12780;45.502;9.146;2024-01-06T03:52:43;7.35;;;4.72;;
24644;SDS011;12780;45.502;9.146;2024-01-06T03:55:09;5.90;;;5.05;;
24644;SDS011;12780;45.502;9.146;2024-01-06T03:57:35;7.10;;;5.32;;
24644;SDS011;12780;45.502;9.146;2024-01-06T04:00:01;6.47;;;4.70;;
24644;SDS011;12780;45.502;9.146;2024-01-06T04:02:27;5.75;;;4.68;;
24644;SDS011;12780;45.502;9.146;2024-01-06T04:04:53;6.97;;;5.10;;
24644;SDS011;12780;45.502;9.146;2024-01-06T04:07:19;10.88;;;5.35;;
24644;SDS011;12780;45.502;9.146;2024-01-06T04:09:45;5.82;;;4.90;;
24644;SDS011;12780;45.502;9.146;2024-01-06T04:12:11;6.93;;;5.22;;
24644;SDS011;12780;45.502;9.146;2024-01-06T04:14:37;6.63;;;5.05;;
24644;SDS011;12780;45.502;9.146;2024-01-06T04:17:03;7.25;;;5.38;;
24644;SDS011;12780;45.502;9.146;2024-01-06T04:19:29;6.45;;;4.93;;
24644;SDS011;12780;45.502;9.146;2024-01-06T04:21:56;7.80;;;4.95;;
24644;SDS011;12780;45.502;9.146;2024-01-06T04:24:22;6.70;;;5.25;;
24644;SDS011;12780;45.502;9.146;2024-01-06T04:26:50;7.57;;;5.45;;
24644;SDS011;12780;45.502;9.146;2024-01-06T04:29:16;6.97;;;5.40;;
24644;SDS011;12780;45.502;9.146;2024-01-06T04:31:42;7.68;;;6.10;;
24644;SDS011;12780;45.502;9.146;2024-01-06T04:34:08;8.07;;;6.18;;
24644;SDS011;12780;45.502;9.146;2024-01-06T04:36:34;7.90;;;6.47;;
24644;SDS011;12780;45.502;9.146;2024-01-06T04:39:00;8.02;;;6.22;;
24644;SDS011;12780;45.502;9.146;2024-01-06T04:41:26;10.02;;;7.75;;
24644;SDS011;12780;45.502;9.146;2024-01-06T04:43:52;10.32;;;7.28;;
24644;SDS011;12780;45.502;9.146;2024-01-06T04:46:18;11.95;;;8.32;;
24644;SDS011;12780;45.502;9.146;2024-01-06T04:48:44;12.90;;;8.77;;
24644;SDS011;12780;45.502;9.146;2024-01-06T04:51:10;13.48;;;9.20;;
24644;SDS011;12780;45.502;9.146;2024-01-06T04:53:36;15.60;;;10.25;;
24644;SDS011;12780;45.502;9.146;2024-01-06T04:56:02;15.70;;;10.70;;
24644;SDS011;12780;45.502;9.146;2024-01-06T04:58:28;17.42;;;11.38;;
24644;SDS011;12780;45.502;9.146;2024-01-06T05:00:54;18.65;;;11.70;;
24644;SDS011;12780;45.502;9.146;2024-01-06T05:03:20;15.98;;;11.00;;
24644;SDS011;12780;45.502;9.146;2024-01-06T05:05:46;16.95;;;11.30;;
24644;SDS011;12780;45.502;9.146;2024-01-06T05:08:12;18.85;;;12.65;;
24644;SDS011;12780;45.502;9.146;2024-01-06T05:10:38;17.15;;;11.07;;
24644;SDS011;12780;45.502;9.146;2024-01-06T05:13:04;16.08;;;11.63;;
24644;SDS011;12780;45.502;9.146;2024-01-06T05:15:30;17.70;;;12.60;;
24644;SDS011;12780;45.502;9.146;2024-01-06T05:17:56;16.55;;;11.32;;
24644;SDS011;12780;45.502;9.146;2024-01-06T05:20:22;15.40;;;10.77;;
24644;SDS011;12780;45.502;9.146;2024-01-06T05:22:48;14.48;;;10.73;;
24644;SDS011;12780;45.502;9.146;2024-01-06T05:25:14;14.50;;;10.45;;
24644;SDS011;12780;45.502;9.146;2024-01-06T05:27:40;12.43;;;9.55;;
24644;SDS011;12780;45.502;9.146;2024-01-06T05:30:06;12.18;;;8.38;;
24644;SDS011;12780;45.502;9.146;2024-01-06T05:32:33;13.25;;;8.15;;
24644;SDS011;12780;45.502;9.146;2024-01-06T05:34:59;9.52;;;7.10;;
24644;SDS011;12780;45.502;9.146;2024-01-06T05:37:25;10.48;;;7.15;;
24644;SDS011;12780;45.502;9.146;2024-01-06T05:39:51;8.75;;;6.88;;
24644;SDS011;12780;45.502;9.146;2024-01-06T05:42:17;8.18;;;6.55;;
24644;SDS011;12780;45.502;9.146;2024-01-06T05:44:43;10.43;;;7.60;;
24644;SDS011;12780;45.502;9.146;2024-01-06T05:47:09;10.77;;;7.15;;
24644;SDS011;12780;45.502;9.146;2024-01-06T05:49:35;10.75;;;8.18;;
24644;SDS011;12780;45.502;9.146;2024-01-06T05:52:01;11.82;;;8.57;;
24644;SDS011;12780;45.502;9.146;2024-01-06T05:54:27;14.25;;;9.88;;
24644;SDS011;12780;45.502;9.146;2024-01-06T05:56:53;12.65;;;9.52;;
24644;SDS011;12780;45.502;9.146;2024-01-06T05:59:19;15.10;;;11.15;;
24644;SDS011;12780;45.502;9.146;2024-01-06T06:01:45;15.15;;;10.88;;
24644;SDS011;12780;45.502;9.146;2024-01-06T06:04:11;16.45;;;10.65;;
24644;SDS011;12780;45.502;9.146;2024-01-06T06:06:37;16.90;;;12.48;;
24644;SDS011;12780;45.502;9.146;2024-01-06T06:09:03;20.27;;;12.02;;
24644;SDS011;12780;45.502;9.146;2024-01-06T06:11:33;18.92;;;12.60;;
24644;SDS011;12780;45.502;9.146;2024-01-06T06:13:59;19.40;;;12.88;;
24644;SDS011;12780;45.502;9.146;2024-01-06T06:16:27;20.95;;;14.10;;
24644;SDS011;12780;45.502;9.146;2024-01-06T06:18:54;19.95;;;13.38;;
24644;SDS011;12780;45.502;9.146;2024-01-06T06:21:20;17.90;;;12.75;;
24644;SDS011;12780;45.502;9.146;2024-01-06T06:23:46;17.98;;;12.38;;
24644;SDS011;12780;45.502;9.146;2024-01-06T06:26:12;19.88;;;13.73;;
24644;SDS011;12780;45.502;9.146;2024-01-06T06:28:38;19.45;;;13.40;;
24644;SDS011;12780;45.502;9.146;2024-01-06T06:31:04;16.63;;;12.40;;
24644;SDS011;12780;45.502;9.146;2024-01-06T06:33:30;18.63;;;12.85;;
24644;SDS011;12780;45.502;9.146;2024-01-06T06:35:58;17.15;;;12.50;;
24644;SDS011;12780;45.502;9.146;2024-01-06T06:38:25;15.60;;;12.07;;
24644;SDS011;12780;45.502;9.146;2024-01-06T06:40:51;16.48;;;12.40;;
24644;SDS011;12780;45.502;9.146;2024-01-06T06:43:17;19.38;;;13.73;;
24644;SDS011;12780;45.502;9.146;2024-01-06T06:45:43;15.52;;;11.20;;
24644;SDS011;12780;45.502;9.146;2024-01-06T06:48:09;16.08;;;11.88;;
24644;SDS011;12780;45.502;9.146;2024-01-06T06:50:35;14.95;;;11.57;;
24644;SDS011;12780;45.502;9.146;2024-01-06T06:53:01;15.85;;;12.15;;
24644;SDS011;12780;45.502;9.146;2024-01-06T06:55:28;15.52;;;11.48;;
24644;SDS011;12780;45.502;9.146;2024-01-06T06:57:54;14.93;;;11.18;;
24644;SDS011;12780;45.502;9.146;2024-01-06T07:00:20;18.00;;;11.98;;
24644;SDS011;12780;45.502;9.146;2024-01-06T07:02:46;17.02;;;11.68;;
24644;SDS011;12780;45.502;9.146;2024-01-06T07:05:12;15.57;;;11.48;;
24644;SDS011;12780;45.502;9.146;2024-01-06T07:07:38;17.90;;;11.75;;
24644;SDS011;12780;45.502;9.146;2024-01-06T07:10:05;16.77;;;12.63;;
24644;SDS011;12780;45.502;9.146;2024-01-06T07:12:31;16.42;;;12.60;;
24644;SDS011;12780;45.502;9.146;2024-01-06T07:14:57;15.88;;;11.88;;
24644;SDS011;12780;45.502;9.146;2024-01-06T07:17:26;18.35;;;13.73;;
24644;SDS011;12780;45.502;9.146;2024-01-06T07:19:52;17.17;;;12.57;;
24644;SDS011;12780;45.502;9.146;2024-01-06T07:22:19;17.13;;;12.65;;
24644;SDS011;12780;45.502;9.146;2024-01-06T07:24:45;18.30;;;12.75;;
24644;SDS011;12780;45.502;9.146;2024-01-06T07:27:11;19.40;;;14.02;;
24644;SDS011;12780;45.502;9.146;2024-01-06T07:29:37;18.77;;;14.00;;
24644;SDS011;12780;45.502;9.146;2024-01-06T07:32:03;18.92;;;13.20;;
24644;SDS011;12780;45.502;9.146;2024-01-06T07:34:31;19.35;;;13.45;;
24644;SDS011;12780;45.502;9.146;2024-01-06T07:36:57;17.60;;;13.30;;
24644;SDS011;12780;45.502;9.146;2024-01-06T07:39:23;17.92;;;13.10;;
24644;SDS011;12780;45.502;9.146;2024-01-06T07:41:49;18.35;;;13.38;;
24644;SDS011;12780;45.502;9.146;2024-01-06T07:44:15;25.73;;;13.57;;
24644;SDS011;12780;45.502;9.146;2024-01-06T07:46:47;22.35;;;12.98;;
24644;SDS011;12780;45.502;9.146;2024-01-06T07:49:13;18.75;;;13.60;;
24644;SDS011;12780;45.502;9.146;2024-01-06T07:51:40;17.17;;;12.85;;
24644;SDS011;12780;45.502;9.146;2024-01-06T07:54:06;18.30;;;12.98;;
24644;SDS011;12780;45.502;9.146;2024-01-06T07:56:34;18.80;;;13.40;;
24644;SDS011;12780;45.502;9.146;2024-01-06T07:59:00;20.00;;;13.75;;
24644;SDS011;12780;45.502;9.146;2024-01-06T08:01:26;19.33;;;13.70;;
24644;SDS011;12780;45.502;9.146;2024-01-06T08:03:52;19.13;;;14.10;;
24644;SDS011;12780;45.502;9.146;2024-01-06T08:06:18;18.92;;;13.65;;
24644;SDS011;12780;45.502;9.146;2024-01-06T08:08:44;17.48;;;12.80;;
24644;SDS011;12780;45.502;9.146;2024-01-06T08:11:11;20.08;;;14.52;;
24644;SDS011;12780;45.502;9.146;2024-01-06T08:13:37;18.30;;;12.88;;
24644;SDS011;12780;45.502;9.146;2024-01-06T08:16:03;22.58;;;14.27;;
24644;SDS011;12780;45.502;9.146;2024-01-06T08:18:30;22.58;;;15.48;;
24644;SDS011;12780;45.502;9.146;2024-01-06T08:20:56;20.02;;;13.93;;
24644;SDS011;12780;45.502;9.146;2024-01-06T08:23:23;22.35;;;14.98;;
24644;SDS011;12780;45.502;9.146;2024-01-06T08:25:49;21.55;;;15.23;;
24644;SDS011;12780;45.502;9.146;2024-01-06T08:28:15;21.13;;;14.95;;
24644;SDS011;12780;45.502;9.146;2024-01-06T08:30:43;22.08;;;15.73;;
24644;SDS011;12780;45.502;9.146;2024-01-06T08:33:09;21.35;;;15.65;;
24644;SDS011;12780;45.502;9.146;2024-01-06T08:35:35;23.02;;;15.70;;
24644;SDS011;12780;45.502;9.146;2024-01-06T08:38:05;21.38;;;14.65;;
24644;SDS011;12780;45.502;9.146;2024-01-06T08:40:31;22.88;;;14.98;;
24644;SDS011;12780;45.502;9.146;2024-01-06T08:42:57;24.63;;;16.80;;
24644;SDS011;12780;45.502;9.146;2024-01-06T08:45:23;25.00;;;16.52;;
24644;SDS011;12780;45.502;9.146;2024-01-06T08:47:49;27.00;;;16.90;;
24644;SDS011;12780;45.502;9.146;2024-01-06T08:50:15;24.73;;;15.90;;
24644;SDS011;12780;45.502;9.146;2024-01-06T08:52:41;22.02;;;15.63;;
24644;SDS011;12780;45.502;9.146;2024-01-06T08:55:07;25.23;;;17.30;;
24644;SDS011;12780;45.502;9.146;2024-01-06T08:57:33;24.40;;;16.75;;
24644;SDS011;12780;45.502;9.146;2024-01-06T09:00:00;24.00;;;16.80;;
24644;SDS011;12780;45.502;9.146;2024-01-06T09:02:26;25.83;;;17.45;;
24644;SDS011;12780;45.502;9.146;2024-01-06T09:04:52;30.27;;;19.05;;
24644;SDS011;12780;45.502;9.146;2024-01-06T09:07:18;25.08;;;17.60;;
24644;SDS011;12780;45.502;9.146;2024-01-06T09:09:44;27.05;;;18.38;;
24644;SDS011;12780;45.502;9.146;2024-01-06T09:12:10;26.65;;;18.13;;
24644;SDS011;12780;45.502;9.146;2024-01-06T09:14:36;31.02;;;19.90;;
24644;SDS011;12780;45.502;9.146;2024-01-06T09:17:02;28.42;;;19.40;;
24644;SDS011;12780;45.502;9.146;2024-01-06T09:19:29;29.30;;;19.98;;
24644;SDS011;12780;45.502;9.146;2024-01-06T09:21:56;27.10;;;18.17;;
24644;SDS011;12780;45.502;9.146;2024-01-06T09:24:22;26.20;;;18.08;;
24644;SDS011;12780;45.502;9.146;2024-01-06T09:26:48;30.95;;;19.27;;
24644;SDS011;12780;45.502;9.146;2024-01-06T09:29:18;29.23;;;18.92;;
24644;SDS011;12780;45.502;9.146;2024-01-06T09:31:44;30.75;;;19.98;;
24644;SDS011;12780;45.502;9.146;2024-01-06T09:34:10;28.33;;;18.48;;
24644;SDS011;12780;45.502;9.146;2024-01-06T09:36:37;28.23;;;18.02;;
24644;SDS011;12780;45.502;9.146;2024-01-06T09:39:03;29.67;;;19.13;;
24644;SDS011;12780;45.502;9.146;2024-01-06T09:41:29;29.95;;;19.38;;
24644;SDS011;12780;45.502;9.146;2024-01-06T09:43:55;27.52;;;18.95;;
24644;SDS011;12780;45.502;9.146;2024-01-06T09:46:25;28.80;;;19.13;;
24644;SDS011;12780;45.502;9.146;2024-01-06T09:48:51;27.10;;;18.88;;
24644;SDS011;12780;45.502;9.146;2024-01-06T09:51:18;28.33;;;18.40;;
24644;SDS011;12780;45.502;9.146;2024-01-06T09:53:57;28.55;;;18.45;;
24644;SDS011;12780;45.502;9.146;2024-01-06T09:56:24;28.98;;;18.95;;
24644;SDS011;12780;45.502;9.146;2024-01-06T09:58:51;27.35;;;18.00;;
24644;SDS011;12780;45.502;9.146;2024-01-06T10:01:17;27.65;;;17.05;;
24644;SDS011;12780;45.502;9.146;2024-01-06T10:03:44;26.00;;;17.42;;
24644;SDS011;12780;45.502;9.146;2024-01-06T10:06:13;25.15;;;17.33;;
24644;SDS011;12780;45.502;9.146;2024-01-06T10:08:42;31.25;;;18.08;;
24644;SDS011;12780;45.502;9.146;2024-01-06T10:11:08;24.83;;;16.83;;
24644;SDS011;12780;45.502;9.146;2024-01-06T10:13:37;23.63;;;16.60;;
24644;SDS011;12780;45.502;9.146;2024-01-06T10:16:06;26.73;;;18.30;;
24644;SDS011;12780;45.502;9.146;2024-01-06T10:18:32;26.90;;;18.92;;
24644;SDS011;12780;45.502;9.146;2024-01-06T10:21:00;30.52;;;19.70;;
24644;SDS011;12780;45.502;9.146;2024-01-06T10:23:26;32.55;;;19.65;;
24644;SDS011;12780;45.502;9.146;2024-01-06T10:25:53;27.65;;;17.77;;
24644;SDS011;12780;45.502;9.146;2024-01-06T10:28:20;30.20;;;17.45;;
24644;SDS011;12780;45.502;9.146;2024-01-06T10:30:47;29.77;;;17.85;;
24644;SDS011;12780;45.502;9.146;2024-01-06T10:33:13;26.33;;;17.55;;
24644;SDS011;12780;45.502;9.146;2024-01-06T10:35:39;26.30;;;16.80;;
24644;SDS011;12780;45.502;9.146;2024-01-06T10:38:06;27.20;;;17.77;;
24644;SDS011;12780;45.502;9.146;2024-01-06T10:40:32;25.48;;;17.17;;
24644;SDS011;12780;45.502;9.146;2024-01-06T10:42:59;30.42;;;19.23;;
24644;SDS011;12780;45.502;9.146;2024-01-06T10:45:26;26.73;;;16.65;;
24644;SDS011;12780;45.502;9.146;2024-01-06T10:47:54;26.38;;;17.55;;
24644;SDS011;12780;45.502;9.146;2024-01-06T10:50:21;27.73;;;18.15;;
24644;SDS011;12780;45.502;9.146;2024-01-06T10:52:47;25.50;;;17.92;;
24644;SDS011;12780;45.502;9.146;2024-01-06T10:55:17;26.58;;;17.55;;
24644;SDS011;12780;45.502;9.146;2024-01-06T10:57:45;27.30;;;18.27;;
24644;SDS011;12780;45.502;9.146;2024-01-06T11:00:12;26.77;;;18.15;;
24644;SDS011;12780;45.502;9.146;2024-01-06T11:02:41;26.95;;;18.55;;
24644;SDS011;12780;45.502;9.146;2024-01-06T11:05:08;31.88;;;19.58;;
24644;SDS011;12780;45.502;9.146;2024-01-06T11:07:35;29.13;;;19.75;;
24644;SDS011;12780;45.502;9.146;2024-01-06T11:10:06;30.63;;;20.60;;
24644;SDS011;12780;45.502;9.146;2024-01-06T11:12:34;30.20;;;19.27;;
24644;SDS011;12780;45.502;9.146;2024-01-06T11:15:00;27.30;;;19.15;;
24644;SDS011;12780;45.502;9.146;2024-01-06T11:20:23;28.98;;;19.63;;
24644;SDS011;12780;45.502;9.146;2024-01-06T11:22:50;28.50;;;19.10;;
24644;SDS011;12780;45.502;9.146;2024-01-06T11:25:17;30.35;;;18.95;;
24644;SDS011;12780;45.502;9.146;2024-01-06T11:27:45;27.95;;;18.23;;
24644;SDS011;12780;45.502;9.146;2024-01-06T11:30:21;27.35;;;19.38;;
24644;SDS011;12780;45.502;9.146;2024-01-06T11:32:48;28.70;;;18.25;;
24644;SDS011;12780;45.502;9.146;2024-01-06T11:35:14;26.67;;;17.60;;
24644;SDS011;12780;45.502;9.146;2024-01-06T11:40:21;22.83;;;16.38;;
24644;SDS011;12780;45.502;9.146;2024-01-06T11:42:59;24.60;;;17.50;;
24644;SDS011;12780;45.502;9.146;2024-01-06T11:45:25;22.45;;;15.45;;
24644;SDS011;12780;45.502;9.146;2024-01-06T11:47:54;25.15;;;16.02;;
24644;SDS011;12780;45.502;9.146;2024-01-06T11:50:21;25.63;;;17.88;;
24644;SDS011;12780;45.502;9.146;2024-01-06T11:52:48;22.23;;;15.68;;
24644;SDS011;12780;45.502;9.146;2024-01-06T11:55:17;20.80;;;14.85;;
24644;SDS011;12780;45.502;9.146;2024-01-06T11:57:43;23.27;;;15.45;;
24644;SDS011;12780;45.502;9.146;2024-01-06T12:00:10;24.45;;;16.80;;
24644;SDS011;12780;45.502;9.146;2024-01-06T12:02:38;23.20;;;16.20;;
24644;SDS011;12780;45.502;9.146;2024-01-06T12:05:04;21.00;;;15.63;;
24644;SDS011;12780;45.502;9.146;2024-01-06T12:07:30;24.38;;;16.63;;
24644;SDS011;12780;45.502;9.146;2024-01-06T12:10:02;22.48;;;15.38;;
24644;SDS011;12780;45.502;9.146;2024-01-06T12:12:29;25.48;;;16.92;;
24644;SDS011;12780;45.502;9.146;2024-01-06T12:14:55;25.25;;;16.83;;
24644;SDS011;12780;45.502;9.146;2024-01-06T12:17:21;23.00;;;16.00;;
24644;SDS011;12780;45.502;9.146;2024-01-06T12:19:47;24.90;;;17.35;;
24644;SDS011;12780;45.502;9.146;2024-01-06T12:22:14;25.77;;;17.08;;
24644;SDS011;12780;45.502;9.146;2024-01-06T12:24:41;24.02;;;16.67;;
24644;SDS011;12780;45.502;9.146;2024-01-06T12:27:08;24.52;;;17.08;;
24644;SDS011;12780;45.502;9.146;2024-01-06T12:29:38;23.83;;;16.52;;
24644;SDS011;12780;45.502;9.146;2024-01-06T12:32:05;21.65;;;15.02;;
24644;SDS011;12780;45.502;9.146;2024-01-06T12:34:31;23.45;;;16.10;;
24644;SDS011;12780;45.502;9.146;2024-01-06T12:36:57;25.13;;;17.05;;
24644;SDS011;12780;45.502;9.146;2024-01-06T12:39:26;27.23;;;17.85;;
24644;SDS011;12780;45.502;9.146;2024-01-06T12:41:53;24.65;;;17.95;;
24644;SDS011;12780;45.502;9.146;2024-01-06T12:44:19;25.85;;;18.45;;
24644;SDS011;12780;45.502;9.146;2024-01-06T12:46:46;28.10;;;18.48;;
24644;SDS011;12780;45.502;9.146;2024-01-06T12:49:12;30.67;;;19.63;;
24644;SDS011;12780;45.502;9.146;2024-01-06T12:51:38;28.33;;;18.70;;
24644;SDS011;12780;45.502;9.146;2024-01-06T12:54:04;26.63;;;19.05;;
24644;SDS011;12780;45.502;9.146;2024-01-06T12:56:30;26.40;;;18.27;;
24644;SDS011;12780;45.502;9.146;2024-01-06T12:58:56;28.38;;;18.58;;
24644;SDS011;12780;45.502;9.146;2024-01-06T13:01:23;29.45;;;18.83;;
24644;SDS011;12780;45.502;9.146;2024-01-06T13:03:49;24.95;;;18.15;;
24644;SDS011;12780;45.502;9.146;2024-01-06T13:06:16;26.52;;;18.23;;
24644;SDS011;12780;45.502;9.146;2024-01-06T13:08:44;26.90;;;18.67;;
24644;SDS011;12780;45.502;9.146;2024-01-06T13:11:10;27.73;;;18.65;;
24644;SDS011;12780;45.502;9.146;2024-01-06T13:13:36;26.50;;;18.17;;
24644;SDS011;12780;45.502;9.146;2024-01-06T13:16:02;28.38;;;18.17;;
24644;SDS011;12780;45.502;9.146;2024-01-06T13:18:30;30.00;;;19.17;;
24644;SDS011;12780;45.502;9.146;2024-01-06T13:20:56;25.67;;;18.10;;
24644;SDS011;12780;45.502;9.146;2024-01-06T13:23:22;26.08;;;17.60;;
24644;SDS011;12780;45.502;9.146;2024-01-06T13:25:48;30.17;;;19.08;;
24644;SDS011;12780;45.502;9.146;2024-01-06T13:28:14;25.60;;;17.45;;
24644;SDS011;12780;45.502;9.146;2024-01-06T13:30:40;28.17;;;18.80;;
24644;SDS011;12780;45.502;9.146;2024-01-06T13:33:06;25.63;;;18.13;;
24644;SDS011;12780;45.502;9.146;2024-01-06T13:35:34;29.17;;;19.92;;
24644;SDS011;12780;45.502;9.146;2024-01-06T13:38:01;33.15;;;19.77;;
24644;SDS011;12780;45.502;9.146;2024-01-06T13:40:29;27.02;;;18.77;;
24644;SDS011;12780;45.502;9.146;2024-01-06T13:42:55;27.35;;;18.65;;
24644;SDS011;12780;45.502;9.146;2024-01-06T13:45:21;26.98;;;19.42;;
24644;SDS011;12780;45.502;9.146;2024-01-06T13:47:47;29.05;;;18.63;;
24644;SDS011;12780;45.502;9.146;2024-01-06T13:50:15;29.65;;;19.17;;
24644;SDS011;12780;45.502;9.146;2024-01-06T13:52:41;27.65;;;18.00;;
24644;SDS011;12780;45.502;9.146;2024-01-06T13:55:08;23.63;;;17.58;;
24644;SDS011;12780;45.502;9.146;2024-01-06T13:57:34;24.98;;;18.33;;
24644;SDS011;12780;45.502;9.146;2024-01-06T14:00:00;24.55;;;17.48;;
24644;SDS011;12780;45.502;9.146;2024-01-06T14:02:29;25.17;;;17.35;;
24644;SDS011;12780;45.502;9.146;2024-01-06T14:04:55;26.42;;;17.75;;
24644;SDS011;12780;45.502;9.146;2024-01-06T14:07:21;27.48;;;18.42;;
24644;SDS011;12780;45.502;9.146;2024-01-06T14:09:47;30.55;;;18.05;;
24644;SDS011;12780;45.502;9.146;2024-01-06T14:12:14;27.70;;;18.55;;
24644;SDS011;12780;45.502;9.146;2024-01-06T14:14:40;27.40;;;18.45;;
24644;SDS011;12780;45.502;9.146;2024-01-06T14:17:06;27.02;;;18.35;;
24644;SDS011;12780;45.502;9.146;2024-01-06T14:19:33;27.27;;;19.70;;
24644;SDS011;12780;45.502;9.146;2024-01-06T14:21:59;24.90;;;17.10;;
24644;SDS011;12780;45.502;9.146;2024-01-06T14:24:25;28.02;;;18.35;;
24644;SDS011;12780;45.502;9.146;2024-01-06T14:26:52;27.50;;;18.20;;
24644;SDS011;12780;45.502;9.146;2024-01-06T14:29:18;26.80;;;18.38;;
24644;SDS011;12780;45.502;9.146;2024-01-06T14:31:44;29.05;;;18.08;;